sensor_id;sensor_type;location;lat;lon;timestamp;P1;durP1;ratioP1;P2;durP2;ratioP2
35576;SDS011;21680;52.400;16.920;2023-02-15T00:00:52;136.90;;;51.90;;
35576;SDS011;21680;52.400;16.920;2023-02-15T00:03:20;147.60;;;54.50;;
35576;SDS011;21680;52.400;16.920;2023-02-15T00:05:46;152.70;;;56.50;;
35576;SDS011;21680;52.400;16.920;2023-02-15T00:08:11;133.40;;;51.80;;
35576;SDS011;21680;52.400;16.920;2023-02-15T00:10:37;142.40;;;54.10;;
35576;SDS011;21680;52.400;16.920;2023-02-15T00:13:02;133.30;;;52.30;;
35576;SDS011;21680;52.400;16.920;2023-02-15T00:15:27;146.50;;;56.30;;
35576;SDS011;21680;52.400;16.920;2023-02-15T00:17:53;143.40;;;54.20;;
35576;SDS011;21680;52.400;16.920;2023-02-15T00:20:18;144.50;;;56.80;;
35576;SDS011;21680;52.400;16.920;2023-02-15T00:22:44;159.70;;;58.30;;
35576;SDS011;21680;52.400;16.920;2023-02-15T00:25:09;160.70;;;61.70;;
35576;SDS011;21680;52.400;16.920;2023-02-15T00:27:35;145.30;;;56.60;;
35576;SDS011;21680;52.400;16.920;2023-02-15T00:30:00;149.90;;;61.10;;
35576;SDS011;21680;52.400;16.920;2023-02-15T00:32:25;155.60;;;56.70;;
35576;SDS011;21680;52.400;16.920;2023-02-15T00:34:50;160.90;;;60.40;;
35576;SDS011;21680;52.400;16.920;2023-02-15T00:37:16;168.40;;;61.90;;
35576;SDS011;21680;52.400;16.920;2023-02-15T00:39:41;171.80;;;66.30;;
35576;SDS011;21680;52.400;16.920;2023-02-15T00:42:06;188.70;;;69.60;;
35576;SDS011;21680;52.400;16.920;2023-02-15T00:44:32;181.20;;;64.80;;
35576;SDS011;21680;52.400;16.920;2023-02-15T00:46:57;166.20;;;61.80;;
35576;SDS011;21680;52.400;16.920;2023-02-15T00:49:22;172.50;;;62.10;;
35576;SDS011;21680;52.400;16.920;2023-02-15T00:51:48;168.00;;;62.50;;
35576;SDS011;21680;52.400;16.920;2023-02-15T00:54:13;164.00;;;65.00;;
35576;SDS011;21680;52.400;16.920;2023-02-15T00:56:38;173.90;;;62.80;;
35576;SDS011;21680;52.400;16.920;2023-02-15T00:59:03;169.30;;;62.90;;
35576;SDS011;21680;52.400;16.920;2023-02-15T01:01:29;162.00;;;60.90;;
35576;SDS011;21680;52.400;16.920;2023-02-15T01:03:54;162.70;;;61.90;;
35576;SDS011;21680;52.400;16.920;2023-02-15T01:06:19;149.30;;;57.80;;
35576;SDS011;21680;52.400;16.920;2023-02-15T01:08:45;151.00;;;55.70;;
35576;SDS011;21680;52.400;16.920;2023-02-15T01:11:12;152.00;;;58.20;;
35576;SDS011;21680;52.400;16.920;2023-02-15T01:13:39;148.00;;;55.90;;
35576;SDS011;21680;52.400;16.920;2023-02-15T01:16:05;148.70;;;55.90;;
35576;SDS011;21680;52.400;16.920;2023-02-15T01:18:33;145.30;;;54.50;;
35576;SDS011;21680;52.400;16.920;2023-02-15T01:20:59;159.20;;;58.20;;
35576;SDS011;21680;52.400;16.920;2023-02-15T01:23:24;147.50;;;60.00;;
35576;SDS011;21680;52.400;16.920;2023-02-15T01:25:50;141.80;;;55.30;;
35576;SDS011;21680;52.400;16.920;2023-02-15T01:28:15;153.80;;;57.20;;
35576;SDS011;21680;52.400;16.920;2023-02-15T01:30:40;164.20;;;59.60;;
35576;SDS011;21680;52.400;16.920;2023-02-15T01:33:06;146.90;;;54.70;;
35576;SDS011;21680;52.400;16.920;2023-02-15T01:35:32;161.70;;;58.70;;
35576;SDS011;21680;52.400;16.920;2023-02-15T01:37:57;148.10;;;57.30;;
35576;SDS011;21680;52.400;16.920;2023-02-15T01:40:23;155.40;;;57.00;;
35576;SDS011;21680;52.400;16.920;2023-02-15T01:42:50;164.30;;;57.80;;
35576;SDS011;21680;52.400;16.920;2023-02-15T01:45:24;158.60;;;60.70;;
35576;SDS011;21680;52.400;16.920;2023-02-15T01:48:04;154.30;;;59.80;;
35576;SDS011;21680;52.400;16.920;2023-02-15T01:50:33;162.80;;;62.40;;
35576;SDS011;21680;52.400;16.920;2023-02-15T01:53:06;168.80;;;64.70;;
35576;SDS011;21680;52.400;16.920;2023-02-15T01:58:12;173.60;;;62.70;;
35576;SDS011;21680;52.400;16.920;2023-02-15T02:00:39;174.90;;;65.20;;
35576;SDS011;21680;52.400;16.920;2023-02-15T02:03:04;167.60;;;64.00;;
35576;SDS011;21680;52.400;16.920;2023-02-15T02:05:29;164.60;;;63.10;;
35576;SDS011;21680;52.400;16.920;2023-02-15T02:07:57;169.20;;;63.70;;
35576;SDS011;21680;52.400;16.920;2023-02-15T02:10:26;177.10;;;65.10;;
35576;SDS011;21680;52.400;16.920;2023-02-15T02:12:53;152.00;;;61.70;;
35576;SDS011;21680;52.400;16.920;2023-02-15T02:15:24;184.00;;;70.60;;
35576;SDS011;21680;52.400;16.920;2023-02-15T02:34:54;164.80;;;63.40;;
35576;SDS011;21680;52.400;16.920;2023-02-15T02:40:25;158.50;;;62.50;;
35576;SDS011;21680;52.400;16.920;2023-02-15T02:43:25;169.50;;;60.50;;
35576;SDS011;21680;52.400;16.920;2023-02-15T02:46:19;168.90;;;64.20;;
35576;SDS011;21680;52.400;16.920;2023-02-15T02:51:14;168.30;;;63.90;;
35576;SDS011;21680;52.400;16.920;2023-02-15T02:53:46;181.90;;;62.90;;
35576;SDS011;21680;52.400;16.920;2023-02-15T02:56:24;181.10;;;63.10;;
35576;SDS011;21680;52.400;16.920;2023-02-15T02:58:56;168.80;;;60.80;;
35576;SDS011;21680;52.400;16.920;2023-02-15T03:01:29;175.60;;;63.70;;
35576;SDS011;21680;52.400;16.920;2023-02-15T03:04:13;176.20;;;66.00;;
35576;SDS011;21680;52.400;16.920;2023-02-15T03:06:48;162.70;;;60.70;;
35576;SDS011;21680;52.400;16.920;2023-02-15T03:10:00;169.30;;;61.80;;
35576;SDS011;21680;52.400;16.920;2023-02-15T03:12:16;168.40;;;63.00;;
35576;SDS011;21680;52.400;16.920;2023-02-15T03:14:47;168.70;;;62.20;;
35576;SDS011;21680;52.400;16.920;2023-02-15T03:17:15;166.20;;;58.00;;
35576;SDS011;21680;52.400;16.920;2023-02-15T03:19:44;162.70;;;62.00;;
35576;SDS011;21680;52.400;16.920;2023-02-15T03:22:23;160.10;;;61.10;;
35576;SDS011;21680;52.400;16.920;2023-02-15T03:24:58;162.60;;;61.20;;
35576;SDS011;21680;52.400;16.920;2023-02-15T03:27:35;144.50;;;56.00;;
35576;SDS011;21680;52.400;16.920;2023-02-15T03:30:07;155.90;;;58.90;;
35576;SDS011;21680;52.400;16.920;2023-02-15T03:32:35;146.10;;;58.20;;
35576;SDS011;21680;52.400;16.920;2023-02-15T03:35:04;152.10;;;57.00;;
35576;SDS011;21680;52.400;16.920;2023-02-15T03:37:51;137.00;;;53.50;;
35576;SDS011;21680;52.400;16.920;2023-02-15T03:40:23;143.90;;;55.30;;
35576;SDS011;21680;52.400;16.920;2023-02-15T03:43:16;137.70;;;52.80;;
35576;SDS011;21680;52.400;16.920;2023-02-15T03:45:47;155.30;;;53.70;;
35576;SDS011;21680;52.400;16.920;2023-02-15T03:48:25;142.00;;;52.70;;
35576;SDS011;21680;52.400;16.920;2023-02-15T03:50:55;145.60;;;51.80;;
35576;SDS011;21680;52.400;16.920;2023-02-15T03:53:43;137.80;;;53.20;;
35576;SDS011;21680;52.400;16.920;2023-02-15T03:56:10;133.70;;;50.60;;
35576;SDS011;21680;52.400;16.920;2023-02-15T03:58:36;132.40;;;51.10;;
35576;SDS011;21680;52.400;16.920;2023-02-15T04:04:20;133.30;;;49.60;;
35576;SDS011;21680;52.400;16.920;2023-02-15T04:06:47;145.40;;;50.60;;
35576;SDS011;21680;52.400;16.920;2023-02-15T04:09:13;146.50;;;53.30;;
35576;SDS011;21680;52.400;16.920;2023-02-15T04:11:58;135.40;;;50.20;;
35576;SDS011;21680;52.400;16.920;2023-02-15T04:14:24;134.20;;;51.40;;
35576;SDS011;21680;52.400;16.920;2023-02-15T04:17:08;133.80;;;50.80;;
35576;SDS011;21680;52.400;16.920;2023-02-15T04:19:34;139.30;;;50.50;;
35576;SDS011;21680;52.400;16.920;2023-02-15T04:22:18;139.40;;;51.60;;
35576;SDS011;21680;52.400;16.920;2023-02-15T04:25:02;125.80;;;49.10;;
35576;SDS011;21680;52.400;16.920;2023-02-15T04:27:44;122.50;;;46.90;;
35576;SDS011;21680;52.400;16.920;2023-02-15T04:30:14;126.20;;;47.10;;
35576;SDS011;21680;52.400;16.920;2023-02-15T04:32:40;129.70;;;49.50;;
35576;SDS011;21680;52.400;16.920;2023-02-15T04:35:06;132.00;;;48.60;;
35576;SDS011;21680;52.400;16.920;2023-02-15T04:37:32;131.80;;;49.10;;
35576;SDS011;21680;52.400;16.920;2023-02-15T04:39:58;140.50;;;47.30;;
35576;SDS011;21680;52.400;16.920;2023-02-15T04:42:24;126.30;;;49.00;;
35576;SDS011;21680;52.400;16.920;2023-02-15T04:44:50;123.30;;;48.90;;
35576;SDS011;21680;52.400;16.920;2023-02-15T04:47:17;135.10;;;51.80;;
35576;SDS011;21680;52.400;16.920;2023-02-15T04:49:42;139.50;;;49.10;;
35576;SDS011;21680;52.400;16.920;2023-02-15T04:52:08;127.90;;;48.60;;
35576;SDS011;21680;52.400;16.920;2023-02-15T04:54:33;124.20;;;47.60;;
35576;SDS011;21680;52.400;16.920;2023-02-15T04:56:58;126.50;;;48.10;;
35576;SDS011;21680;52.400;16.920;2023-02-15T04:59:23;123.10;;;45.00;;
35576;SDS011;21680;52.400;16.920;2023-02-15T05:01:49;121.00;;;45.20;;
35576;SDS011;21680;52.400;16.920;2023-02-15T05:04:14;136.00;;;47.10;;
35576;SDS011;21680;52.400;16.920;2023-02-15T05:06:40;120.60;;;43.60;;
35576;SDS011;21680;52.400;16.920;2023-02-15T05:09:05;132.30;;;45.70;;
35576;SDS011;21680;52.400;16.920;2023-02-15T05:11:31;119.60;;;43.50;;
35576;SDS011;21680;52.400;16.920;2023-02-15T05:13:56;129.80;;;45.40;;
35576;SDS011;21680;52.400;16.920;2023-02-15T05:16:22;119.30;;;44.40;;
35576;SDS011;21680;52.400;16.920;2023-02-15T05:18:47;107.90;;;43.50;;
35576;SDS011;21680;52.400;16.920;2023-02-15T05:21:12;128.20;;;47.40;;
35576;SDS011;21680;52.400;16.920;2023-02-15T05:23:38;126.50;;;46.10;;
35576;SDS011;21680;52.400;16.920;2023-02-15T05:26:04;110.20;;;43.60;;
35576;SDS011;21680;52.400;16.920;2023-02-15T05:28:48;130.40;;;46.20;;
35576;SDS011;21680;52.400;16.920;2023-02-15T05:31:14;115.00;;;43.60;;
35576;SDS011;21680;52.400;16.920;2023-02-15T05:33:43;119.20;;;44.60;;
35576;SDS011;21680;52.400;16.920;2023-02-15T05:36:09;121.40;;;45.30;;
35576;SDS011;21680;52.400;16.920;2023-02-15T05:38:35;122.80;;;45.70;;
35576;SDS011;21680;52.400;16.920;2023-02-15T05:41:04;117.70;;;44.30;;
35576;SDS011;21680;52.400;16.920;2023-02-15T05:43:33;125.40;;;46.40;;
35576;SDS011;21680;52.400;16.920;2023-02-15T05:45:59;119.90;;;44.50;;
35576;SDS011;21680;52.400;16.920;2023-02-15T05:48:25;116.30;;;43.50;;
35576;SDS011;21680;52.400;16.920;2023-02-15T05:53:29;113.90;;;44.10;;
35576;SDS011;21680;52.400;16.920;2023-02-15T05:55:55;127.10;;;47.00;;
35576;SDS011;21680;52.400;16.920;2023-02-15T05:58:27;117.50;;;44.90;;
35576;SDS011;21680;52.400;16.920;2023-02-15T06:00:53;114.90;;;44.30;;
35576;SDS011;21680;52.400;16.920;2023-02-15T06:03:19;109.10;;;43.80;;
35576;SDS011;21680;52.400;16.920;2023-02-15T06:05:44;114.70;;;43.90;;
35576;SDS011;21680;52.400;16.920;2023-02-15T06:08:10;109.00;;;41.30;;
35576;SDS011;21680;52.400;16.920;2023-02-15T06:10:35;115.00;;;43.90;;
35576;SDS011;21680;52.400;16.920;2023-02-15T06:13:00;110.20;;;42.90;;
35576;SDS011;21680;52.400;16.920;2023-02-15T06:15:26;116.30;;;44.30;;
35576;SDS011;21680;52.400;16.920;2023-02-15T06:17:51;124.40;;;44.00;;
35576;SDS011;21680;52.400;16.920;2023-02-15T06:20:17;109.50;;;42.10;;
35576;SDS011;21680;52.400;16.920;2023-02-15T06:22:42;114.10;;;43.80;;
35576;SDS011;21680;52.400;16.920;2023-02-15T06:25:08;113.00;;;43.20;;
35576;SDS011;21680;52.400;16.920;2023-02-15T06:27:35;113.00;;;45.60;;
35576;SDS011;21680;52.400;16.920;2023-02-15T06:30:01;112.30;;;43.50;;
35576;SDS011;21680;52.400;16.920;2023-02-15T06:32:26;128.90;;;46.10;;
35576;SDS011;21680;52.400;16.920;2023-02-15T06:34:51;117.90;;;44.50;;
35576;SDS011;21680;52.400;16.920;2023-02-15T06:37:17;121.90;;;44.20;;
35576;SDS011;21680;52.400;16.920;2023-02-15T06:39:42;111.00;;;44.70;;
35576;SDS011;21680;52.400;16.920;2023-02-15T06:42:08;117.90;;;44.20;;
35576;SDS011;21680;52.400;16.920;2023-02-15T06:44:33;103.50;;;43.00;;
35576;SDS011;21680;52.400;16.920;2023-02-15T06:46:58;108.30;;;44.90;;
35576;SDS011;21680;52.400;16.920;2023-02-15T06:49:23;115.40;;;44.70;;
35576;SDS011;21680;52.400;16.920;2023-02-15T06:51:49;117.60;;;46.00;;
35576;SDS011;21680;52.400;16.920;2023-02-15T06:54:14;124.60;;;47.10;;
35576;SDS011;21680;52.400;16.920;2023-02-15T06:56:39;122.80;;;45.60;;
35576;SDS011;21680;52.400;16.920;2023-02-15T06:59:04;115.50;;;47.00;;
35576;SDS011;21680;52.400;16.920;2023-02-15T07:01:30;116.90;;;47.20;;
35576;SDS011;21680;52.400;16.920;2023-02-15T07:03:55;122.90;;;46.40;;
35576;SDS011;21680;52.400;16.920;2023-02-15T07:06:20;123.60;;;47.80;;
35576;SDS011;21680;52.400;16.920;2023-02-15T07:08:46;110.70;;;44.70;;
35576;SDS011;21680;52.400;16.920;2023-02-15T07:11:11;120.00;;;47.60;;
35576;SDS011;21680;52.400;16.920;2023-02-15T07:13:55;116.40;;;48.60;;
35576;SDS011;21680;52.400;16.920;2023-02-15T07:16:21;117.60;;;45.20;;
35576;SDS011;21680;52.400;16.920;2023-02-15T07:18:46;127.50;;;49.20;;
35576;SDS011;21680;52.400;16.920;2023-02-15T07:21:11;117.80;;;46.30;;
35576;SDS011;21680;52.400;16.920;2023-02-15T07:23:37;120.30;;;46.80;;
35576;SDS011;21680;52.400;16.920;2023-02-15T07:26:04;121.70;;;47.40;;
35576;SDS011;21680;52.400;16.920;2023-02-15T07:28:31;113.80;;;45.20;;
35576;SDS011;21680;52.400;16.920;2023-02-15T07:30:56;111.20;;;45.40;;
35576;SDS011;21680;52.400;16.920;2023-02-15T07:33:22;110.20;;;43.70;;
35576;SDS011;21680;52.400;16.920;2023-02-15T07:35:49;111.00;;;44.00;;
35576;SDS011;21680;52.400;16.920;2023-02-15T07:38:15;110.40;;;44.60;;
35576;SDS011;21680;52.400;16.920;2023-02-15T07:40:41;108.50;;;42.90;;
35576;SDS011;21680;52.400;16.920;2023-02-15T07:43:07;119.60;;;46.40;;
35576;SDS011;21680;52.400;16.920;2023-02-15T07:45:32;119.20;;;46.80;;
35576;SDS011;21680;52.400;16.920;2023-02-15T07:47:59;118.80;;;48.00;;
35576;SDS011;21680;52.400;16.920;2023-02-15T07:50:25;121.40;;;47.00;;
35576;SDS011;21680;52.400;16.920;2023-02-15T07:52:51;126.20;;;43.80;;
35576;SDS011;21680;52.400;16.920;2023-02-15T07:55:16;120.90;;;49.50;;
35576;SDS011;21680;52.400;16.920;2023-02-15T07:57:42;113.30;;;47.00;;
35576;SDS011;21680;52.400;16.920;2023-02-15T08:00:09;109.70;;;45.60;;
35576;SDS011;21680;52.400;16.920;2023-02-15T08:02:36;117.80;;;43.80;;
35576;SDS011;21680;52.400;16.920;2023-02-15T08:05:02;114.00;;;45.80;;
35576;SDS011;21680;52.400;16.920;2023-02-15T08:07:27;121.80;;;46.80;;
35576;SDS011;21680;52.400;16.920;2023-02-15T08:09:53;111.10;;;44.20;;
35576;SDS011;21680;52.400;16.920;2023-02-15T08:12:18;110.50;;;45.60;;
35576;SDS011;21680;52.400;16.920;2023-02-15T08:14:44;108.10;;;42.90;;
35576;SDS011;21680;52.400;16.920;2023-02-15T08:17:09;105.20;;;40.80;;
35576;SDS011;21680;52.400;16.920;2023-02-15T08:19:34;106.00;;;42.80;;
35576;SDS011;21680;52.400;16.920;2023-02-15T08:22:01;96.50;;;39.50;;
35576;SDS011;21680;52.400;16.920;2023-02-15T08:24:30;96.90;;;40.20;;
35576;SDS011;21680;52.400;16.920;2023-02-15T08:27:01;105.30;;;41.80;;
35576;SDS011;21680;52.400;16.920;2023-02-15T08:29:28;102.20;;;40.80;;
35576;SDS011;21680;52.400;16.920;2023-02-15T08:31:56;98.60;;;39.40;;
35576;SDS011;21680;52.400;16.920;2023-02-15T08:34:30;92.10;;;37.70;;
35576;SDS011;21680;52.400;16.920;2023-02-15T08:36:57;93.70;;;40.20;;
35576;SDS011;21680;52.400;16.920;2023-02-15T08:39:22;101.90;;;40.10;;
35576;SDS011;21680;52.400;16.920;2023-02-15T08:41:48;99.60;;;42.80;;
35576;SDS011;21680;52.400;16.920;2023-02-15T08:44:14;121.70;;;48.80;;
35576;SDS011;21680;52.400;16.920;2023-02-15T08:46:42;136.00;;;51.60;;
35576;SDS011;21680;52.400;16.920;2023-02-15T08:49:09;137.30;;;54.70;;
35576;SDS011;21680;52.400;16.920;2023-02-15T08:51:37;128.60;;;51.00;;
35576;SDS011;21680;52.400;16.920;2023-02-15T08:54:04;148.30;;;57.90;;
35576;SDS011;21680;52.400;16.920;2023-02-15T08:56:33;113.50;;;47.40;;
35576;SDS011;21680;52.400;16.920;2023-02-15T08:59:00;112.80;;;47.30;;
35576;SDS011;21680;52.400;16.920;2023-02-15T09:01:27;103.90;;;44.80;;
35576;SDS011;21680;52.400;16.920;2023-02-15T09:03:55;87.30;;;39.00;;
35576;SDS011;21680;52.400;16.920;2023-02-15T09:06:22;82.30;;;36.60;;
35576;SDS011;21680;52.400;16.920;2023-02-15T09:08:48;76.30;;;35.30;;
35576;SDS011;21680;52.400;16.920;2023-02-15T09:11:15;86.70;;;36.60;;
35576;SDS011;21680;52.400;16.920;2023-02-15T09:13:49;80.10;;;36.20;;
35576;SDS011;21680;52.400;16.920;2023-02-15T09:16:17;86.20;;;37.20;;
35576;SDS011;21680;52.400;16.920;2023-02-15T09:18:43;78.90;;;34.20;;
35576;SDS011;21680;52.400;16.920;2023-02-15T09:21:12;78.80;;;32.70;;
35576;SDS011;21680;52.400;16.920;2023-02-15T09:23:40;77.70;;;31.70;;
35576;SDS011;21680;52.400;16.920;2023-02-15T09:26:11;87.90;;;36.10;;
35576;SDS011;21680;52.400;16.920;2023-02-15T09:28:41;75.00;;;32.80;;
35576;SDS011;21680;52.400;16.920;2023-02-15T09:31:11;79.90;;;37.00;;
35576;SDS011;21680;52.400;16.920;2023-02-15T09:33:37;80.60;;;33.70;;
35576;SDS011;21680;52.400;16.920;2023-02-15T09:36:04;84.10;;;36.10;;
35576;SDS011;21680;52.400;16.920;2023-02-15T09:38:31;89.00;;;39.00;;
35576;SDS011;21680;52.400;16.920;2023-02-15T09:58:22;88.80;;;33.70;;
35576;SDS011;21680;52.400;16.920;2023-02-15T10:09:06;79.10;;;33.00;;
35576;SDS011;21680;52.400;16.920;2023-02-15T10:17:21;75.60;;;33.10;;
35576;SDS011;21680;52.400;16.920;2023-02-15T10:23:22;74.50;;;31.90;;
35576;SDS011;21680;52.400;16.920;2023-02-15T10:28:48;71.60;;;31.90;;
35576;SDS011;21680;52.400;16.920;2023-02-15T10:31:39;72.90;;;30.50;;
35576;SDS011;21680;52.400;16.920;2023-02-15T10:34:19;64.40;;;30.10;;
35576;SDS011;21680;52.400;16.920;2023-02-15T10:39:49;70.80;;;30.80;;
35576;SDS011;21680;52.400;16.920;2023-02-15T10:47:42;70.20;;;31.20;;
35576;SDS011;21680;52.400;16.920;2023-02-15T10:56:17;68.60;;;30.90;;
35576;SDS011;21680;52.400;16.920;2023-02-15T10:58:51;73.70;;;31.90;;
35576;SDS011;21680;52.400;16.920;2023-02-15T11:01:55;68.20;;;31.30;;
35576;SDS011;21680;52.400;16.920;2023-02-15T11:07:33;70.40;;;30.50;;
35576;SDS011;21680;52.400;16.920;2023-02-15T11:12:57;71.40;;;29.90;;
35576;SDS011;21680;52.400;16.920;2023-02-15T11:15:38;77.80;;;33.20;;
35576;SDS011;21680;52.400;16.920;2023-02-15T11:21:00;69.30;;;32.10;;
35576;SDS011;21680;52.400;16.920;2023-02-15T11:23:28;69.00;;;31.70;;
35576;SDS011;21680;52.400;16.920;2023-02-15T11:25:58;78.10;;;33.20;;
35576;SDS011;21680;52.400;16.920;2023-02-15T11:28:34;77.40;;;33.50;;
35576;SDS011;21680;52.400;16.920;2023-02-15T11:31:16;70.90;;;32.70;;
35576;SDS011;21680;52.400;16.920;2023-02-15T11:33:45;70.70;;;32.50;;
35576;SDS011;21680;52.400;16.920;2023-02-15T11:36:34;72.70;;;32.40;;
35576;SDS011;21680;52.400;16.920;2023-02-15T11:39:14;63.50;;;31.00;;
35576;SDS011;21680;52.400;16.920;2023-02-15T11:41:50;65.30;;;31.60;;
35576;SDS011;21680;52.400;16.920;2023-02-15T11:44:23;66.30;;;31.60;;
35576;SDS011;21680;52.400;16.920;2023-02-15T11:47:11;73.00;;;33.00;;
35576;SDS011;21680;52.400;16.920;2023-02-15T11:49:37;68.70;;;33.20;;
35576;SDS011;21680;52.400;16.920;2023-02-15T11:52:07;71.50;;;33.40;;
35576;SDS011;21680;52.400;16.920;2023-02-15T11:54:39;72.10;;;33.30;;
35576;SDS011;21680;52.400;16.920;2023-02-15T11:57:12;69.60;;;33.80;;
35576;SDS011;21680;52.400;16.920;2023-02-15T11:59:48;71.60;;;33.60;;
35576;SDS011;21680;52.400;16.920;2023-02-15T12:02:18;78.40;;;35.50;;
35576;SDS011;21680;52.400;16.920;2023-02-15T12:05:03;67.80;;;32.40;;
35576;SDS011;21680;52.400;16.920;2023-02-15T12:07:46;71.60;;;33.10;;
35576;SDS011;21680;52.400;16.920;2023-02-15T12:10:18;77.60;;;35.30;;
35576;SDS011;21680;52.400;16.920;2023-02-15T12:12:45;67.20;;;32.60;;
35576;SDS011;21680;52.400;16.920;2023-02-15T12:15:10;73.10;;;34.30;;
35576;SDS011;21680;52.400;16.920;2023-02-15T12:17:41;75.70;;;34.80;;
35576;SDS011;21680;52.400;16.920;2023-02-15T12:22:38;77.00;;;35.80;;
35576;SDS011;21680;52.400;16.920;2023-02-15T12:25:23;81.00;;;36.00;;
35576;SDS011;21680;52.400;16.920;2023-02-15T12:27:54;74.50;;;34.50;;
35576;SDS011;21680;52.400;16.920;2023-02-15T12:30:25;70.50;;;35.90;;
35576;SDS011;21680;52.400;16.920;2023-02-15T12:32:57;92.00;;;43.10;;
35576;SDS011;21680;52.400;16.920;2023-02-15T12:35:31;78.40;;;38.20;;
35576;SDS011;21680;52.400;16.920;2023-02-15T12:38:09;74.10;;;38.90;;
35576;SDS011;21680;52.400;16.920;2023-02-15T12:41:04;71.50;;;35.60;;
35576;SDS011;21680;52.400;16.920;2023-02-15T12:43:46;64.40;;;32.80;;
35576;SDS011;21680;52.400;16.920;2023-02-15T12:49:16;71.00;;;35.10;;
35576;SDS011;21680;52.400;16.920;2023-02-15T12:51:50;72.70;;;35.00;;
35576;SDS011;21680;52.400;16.920;2023-02-15T12:56:49;72.90;;;37.30;;
35576;SDS011;21680;52.400;16.920;2023-02-15T12:59:14;74.90;;;37.00;;
35576;SDS011;21680;52.400;16.920;2023-02-15T13:01:45;69.50;;;35.90;;
35576;SDS011;21680;52.400;16.920;2023-02-15T13:04:27;73.00;;;38.40;;
35576;SDS011;21680;52.400;16.920;2023-02-15T13:06:55;72.60;;;34.60;;
35576;SDS011;21680;52.400;16.920;2023-02-15T13:14:25;71.90;;;36.40;;
35576;SDS011;21680;52.400;16.920;2023-02-15T13:16:56;68.40;;;36.50;;
35576;SDS011;21680;52.400;16.920;2023-02-15T13:22:52;69.20;;;35.60;;
35576;SDS011;21680;52.400;16.920;2023-02-15T13:25:24;68.80;;;34.20;;
35576;SDS011;21680;52.400;16.920;2023-02-15T13:27:53;68.60;;;37.60;;
35576;SDS011;21680;52.400;16.920;2023-02-15T13:30:24;71.40;;;36.40;;
35576;SDS011;21680;52.400;16.920;2023-02-15T13:32:54;71.20;;;36.00;;
35576;SDS011;21680;52.400;16.920;2023-02-15T13:35:23;71.60;;;35.40;;
35576;SDS011;21680;52.400;16.920;2023-02-15T13:40:25;67.70;;;33.60;;
35576;SDS011;21680;52.400;16.920;2023-02-15T13:42:57;77.00;;;37.10;;
35576;SDS011;21680;52.400;16.920;2023-02-15T13:45:39;75.10;;;36.90;;
35576;SDS011;21680;52.400;16.920;2023-02-15T13:49:12;73.10;;;37.70;;
35576;SDS011;21680;52.400;16.920;2023-02-15T13:57:05;72.60;;;35.40;;
35576;SDS011;21680;52.400;16.920;2023-02-15T13:59:51;76.80;;;36.50;;
35576;SDS011;21680;52.400;16.920;2023-02-15T14:02:38;71.20;;;35.30;;
35576;SDS011;21680;52.400;16.920;2023-02-15T14:05:31;70.50;;;36.70;;
35576;SDS011;21680;52.400;16.920;2023-02-15T14:08:16;76.40;;;37.20;;
35576;SDS011;21680;52.400;16.920;2023-02-15T14:11:07;72.70;;;36.40;;
35576;SDS011;21680;52.400;16.920;2023-02-15T14:13:49;70.80;;;33.90;;
35576;SDS011;21680;52.400;16.920;2023-02-15T14:19:28;75.50;;;35.60;;
35576;SDS011;21680;52.400;16.920;2023-02-15T14:25:05;71.80;;;35.80;;
35576;SDS011;21680;52.400;16.920;2023-02-15T14:30:18;74.80;;;36.80;;
35576;SDS011;21680;52.400;16.920;2023-02-15T14:32:47;76.00;;;35.20;;
35576;SDS011;21680;52.400;16.920;2023-02-15T14:35:20;74.10;;;36.10;;
35576;SDS011;21680;52.400;16.920;2023-02-15T14:41:00;71.10;;;35.10;;
35576;SDS011;21680;52.400;16.920;2023-02-15T14:49:21;86.30;;;36.20;;
35576;SDS011;21680;52.400;16.920;2023-02-15T15:05:20;71.60;;;34.50;;
35576;SDS011;21680;52.400;16.920;2023-02-15T15:07:55;75.40;;;34.60;;
35576;SDS011;21680;52.400;16.920;2023-02-15T15:18:04;135.60;;;49.40;;
35576;SDS011;21680;52.400;16.920;2023-02-15T15:31:00;92.90;;;40.90;;
35576;SDS011;21680;52.400;16.920;2023-02-15T15:48:48;80.20;;;35.80;;
35576;SDS011;21680;52.400;16.920;2023-02-15T15:50:53;77.80;;;33.40;;
35576;SDS011;21680;52.400;16.920;2023-02-15T15:53:25;75.20;;;35.40;;
35576;SDS011;21680;52.400;16.920;2023-02-15T15:55:55;83.00;;;37.50;;
35576;SDS011;21680;52.400;16.920;2023-02-15T15:58:25;76.70;;;34.70;;
35576;SDS011;21680;52.400;16.920;2023-02-15T16:01:07;76.70;;;34.70;;
35576;SDS011;21680;52.400;16.920;2023-02-15T16:03:36;84.50;;;34.40;;
35576;SDS011;21680;52.400;16.920;2023-02-15T16:06:02;84.70;;;35.80;;
35576;SDS011;21680;52.400;16.920;2023-02-15T16:08:31;87.40;;;35.10;;
35576;SDS011;21680;52.400;16.920;2023-02-15T16:11:00;92.10;;;36.50;;
35576;SDS011;21680;52.400;16.920;2023-02-15T16:13:35;97.10;;;39.10;;
35576;SDS011;21680;52.400;16.920;2023-02-15T16:16:00;97.90;;;41.50;;
35576;SDS011;21680;52.400;16.920;2023-02-15T16:18:26;116.90;;;44.40;;
35576;SDS011;21680;52.400;16.920;2023-02-15T16:23:35;119.30;;;44.50;;
35576;SDS011;21680;52.400;16.920;2023-02-15T16:26:34;120.70;;;45.90;;
35576;SDS011;21680;52.400;16.920;2023-02-15T16:29:14;116.70;;;44.00;;
35576;SDS011;21680;52.400;16.920;2023-02-15T16:34:54;108.90;;;41.20;;
35576;SDS011;21680;52.400;16.920;2023-02-15T16:37:25;104.30;;;39.50;;
35576;SDS011;21680;52.400;16.920;2023-02-15T16:39:53;109.60;;;39.80;;
35576;SDS011;21680;52.400;16.920;2023-02-15T16:42:21;99.30;;;39.50;;
35576;SDS011;21680;52.400;16.920;2023-02-15T16:45:09;105.10;;;43.10;;
35576;SDS011;21680;52.400;16.920;2023-02-15T16:47:41;92.60;;;39.90;;
35576;SDS011;21680;52.400;16.920;2023-02-15T16:50:16;104.00;;;43.00;;
35576;SDS011;21680;52.400;16.920;2023-02-15T16:52:43;95.70;;;39.10;;
35576;SDS011;21680;52.400;16.920;2023-02-15T16:55:26;96.50;;;38.70;;
35576;SDS011;21680;52.400;16.920;2023-02-15T16:58:04;103.40;;;40.30;;
35576;SDS011;21680;52.400;16.920;2023-02-15T17:00:34;100.10;;;39.50;;
35576;SDS011;21680;52.400;16.920;2023-02-15T17:10:42;96.60;;;40.90;;
35576;SDS011;21680;52.400;16.920;2023-02-15T17:13:14;104.50;;;42.40;;
35576;SDS011;21680;52.400;16.920;2023-02-15T17:15:44;111.40;;;45.30;;
35576;SDS011;21680;52.400;16.920;2023-02-15T17:18:26;137.70;;;54.30;;
35576;SDS011;21680;52.400;16.920;2023-02-15T17:20:55;121.80;;;51.00;;
35576;SDS011;21680;52.400;16.920;2023-02-15T17:25:58;122.70;;;49.70;;
35576;SDS011;21680;52.400;16.920;2023-02-15T17:28:27;125.90;;;48.90;;
35576;SDS011;21680;52.400;16.920;2023-02-15T17:30:55;132.10;;;52.80;;
35576;SDS011;21680;52.400;16.920;2023-02-15T17:33:26;139.90;;;53.50;;
35576;SDS011;21680;52.400;16.920;2023-02-15T17:36:02;140.50;;;54.60;;